< < Back
Terminal Aerodrome Forecast


Current Version              Previous Versions:   1  2  3  4  5  6  7  8  9  

Terminal Aerodrome Forecast

914
FTUS42 KTAE 191900 AAA
TAFABY
TAF AMD
KABY 191958Z 1920/2018 22008KT P6SM VCTS BKN035CB BKN100
     FM200200 24004KT P6SM SCT250
      TEMPO 2010/2014 4SM BR SCT005
     FM201400 29007KT P6SM SCT250=

Latest METAR

653
SAUS70 KWBC 200800 RRI
MTRABY
METAR KABY 200753Z 00000KT 10SM CLR 22/22 A2998 RMK AO2 SLP152
T02220217


USA.gov is the U.S. government's official web portal to all federal, state and local government web resources and services.